createdAt,value
2018-04-24T00:00:09.427Z,1010.37
2018-04-24T00:01:09.417Z,1010.29
2018-04-24T00:02:09.469Z,1010.33
2018-04-24T00:03:09.440Z,1010.30
2018-04-24T00:04:09.464Z,1010.31
2018-04-24T00:05:09.467Z,1010.30
2018-04-24T00:06:09.522Z,1010.25
2018-04-24T00:07:09.517Z,1010.29
2018-04-24T00:08:09.514Z,1010.30
2018-04-24T00:09:09.531Z,1010.31
2018-04-24T00:10:09.555Z,1010.29
2018-04-24T00:11:09.577Z,1010.31
2018-04-24T00:12:09.544Z,1010.31
2018-04-24T00:13:09.634Z,1010.33
2018-04-24T00:14:09.581Z,1010.33
2018-04-24T00:15:09.588Z,1010.34
2018-04-24T00:16:09.637Z,1010.35
2018-04-24T00:17:09.634Z,1010.32
2018-04-24T00:18:09.737Z,1010.38
2018-04-24T00:19:09.702Z,1010.36
2018-04-24T00:20:09.654Z,1010.35
2018-04-24T00:21:09.684Z,1010.33
2018-04-24T00:22:09.680Z,1010.37
2018-04-24T00:23:09.696Z,1010.34
2018-04-24T00:24:09.707Z,1010.32
2018-04-24T00:25:09.760Z,1010.29
2018-04-24T00:26:09.802Z,1010.32
2018-04-24T00:27:09.740Z,1010.33
2018-04-24T00:28:09.779Z,1010.34
2018-04-24T00:29:09.763Z,1010.37
2018-04-24T00:30:09.794Z,1010.35
2018-04-24T00:31:09.779Z,1010.42
2018-04-24T00:32:09.783Z,1010.41
2018-04-24T00:33:09.817Z,1010.39
2018-04-24T00:34:09.853Z,1010.39
2018-04-24T00:35:09.818Z,1010.39
2018-04-24T00:36:09.846Z,1010.40
2018-04-24T00:37:09.863Z,1010.40
2018-04-24T00:38:09.872Z,1010.41
2018-04-24T00:39:09.932Z,1010.45
2018-04-24T00:40:09.952Z,1010.47
2018-04-24T00:41:09.895Z,1010.47
2018-04-24T00:42:09.909Z,1010.49
2018-04-24T00:43:09.960Z,1010.47
2018-04-24T00:44:09.936Z,1010.48
2018-04-24T00:45:09.975Z,1010.47
2018-04-24T00:46:09.947Z,1010.52
2018-04-24T00:47:09.960Z,1010.52
2018-04-24T00:48:09.990Z,1010.54
2018-04-24T00:49:09.992Z,1010.54
2018-04-24T00:50:10.068Z,1010.55
2018-04-24T00:51:10.027Z,1010.53
2018-04-24T00:52:10.022Z,1010.52
2018-04-24T00:53:10.029Z,1010.51
2018-04-24T00:54:10.091Z,1010.52
2018-04-24T00:55:10.109Z,1010.54
2018-04-24T00:56:10.121Z,1010.50
2018-04-24T00:57:10.123Z,1010.50
2018-04-24T00:58:10.106Z,1010.47
2018-04-24T00:59:10.121Z,1010.50
2018-04-24T01:00:10.127Z,1010.48
2018-04-24T01:01:10.210Z,1010.48
2018-04-24T01:02:10.153Z,1010.49
2018-04-24T01:03:10.152Z,1010.46
2018-04-24T01:04:10.182Z,1010.48
2018-04-24T01:05:10.187Z,1010.48
2018-04-24T01:06:10.256Z,1010.51
2018-04-24T01:07:10.196Z,1010.52
2018-04-24T01:08:10.211Z,1010.52
2018-04-24T01:09:10.229Z,1010.48
2018-04-24T01:10:10.239Z,1010.47
2018-04-24T01:11:10.280Z,1010.46
2018-04-24T01:12:10.333Z,1010.47
2018-04-24T01:13:10.275Z,1010.46
2018-04-24T01:14:10.281Z,1010.49
2018-04-24T01:15:10.298Z,1010.46
2018-04-24T01:16:10.338Z,1010.51
2018-04-24T01:17:10.321Z,1010.49
2018-04-24T01:18:10.372Z,1010.49
2018-04-24T01:19:10.353Z,1010.50
2018-04-24T01:20:10.356Z,1010.47
2018-04-24T01:21:10.358Z,1010.53
2018-04-24T01:22:10.364Z,1010.54
2018-04-24T01:23:10.434Z,1010.59
2018-04-24T01:24:10.438Z,1010.59
2018-04-24T01:25:10.415Z,1010.61
2018-04-24T01:26:10.431Z,1010.58
2018-04-24T01:27:10.438Z,1010.58
2018-04-24T01:28:10.437Z,1010.59
2018-04-24T01:29:10.495Z,1010.59
2018-04-24T01:30:10.463Z,1010.63
2018-04-24T01:31:10.476Z,1010.66
2018-04-24T01:32:10.494Z,1010.71
2018-04-24T01:33:10.532Z,1010.72
2018-04-24T01:34:10.591Z,1010.69
2018-04-24T01:35:10.537Z,1010.76
2018-04-24T01:36:10.538Z,1010.72
2018-04-24T01:37:10.544Z,1010.70
2018-04-24T01:38:10.603Z,1010.67
2018-04-24T01:39:10.571Z,1010.70
2018-04-24T01:40:10.620Z,1010.71
2018-04-24T01:41:10.597Z,1010.75
2018-04-24T01:42:10.612Z,1010.71
2018-04-24T01:43:10.622Z,1010.69
2018-04-24T01:44:10.719Z,1010.71
2018-04-24T01:45:10.665Z,1010.68
2018-04-24T01:46:10.662Z,1010.69
2018-04-24T01:47:10.666Z,1010.66
2018-04-24T01:48:10.672Z,1010.69
2018-04-24T01:49:10.766Z,1010.70
2018-04-24T01:50:10.709Z,1010.74
2018-04-24T01:51:10.726Z,1010.74
2018-04-24T01:52:10.720Z,1010.71
2018-04-24T01:53:10.743Z,1010.76
2018-04-24T01:54:10.788Z,1010.77
2018-04-24T01:55:10.760Z,1010.73
2018-04-24T01:56:10.828Z,1010.72
2018-04-24T01:57:10.776Z,1010.76
2018-04-24T01:58:10.835Z,1010.73
2018-04-24T01:59:10.819Z,1010.72
2018-04-24T02:00:10.879Z,1010.70
2018-04-24T02:01:10.873Z,1010.68
2018-04-24T02:02:10.841Z,1010.74
2018-04-24T02:03:10.850Z,1010.72
2018-04-24T02:04:10.857Z,1010.75
2018-04-24T02:05:10.868Z,1010.71
2018-04-24T02:06:10.917Z,1010.71
2018-04-24T02:07:10.913Z,1010.69
2018-04-24T02:08:10.901Z,1010.68
2018-04-24T02:09:10.925Z,1010.66
2018-04-24T02:10:10.923Z,1010.67
2018-04-24T02:11:11.027Z,1010.65
2018-04-24T02:12:10.944Z,1010.60
2018-04-24T02:13:10.967Z,1010.62
2018-04-24T02:14:10.987Z,1010.63
2018-04-24T02:15:10.995Z,1010.62
2018-04-24T02:16:11.005Z,1010.66
2018-04-24T02:17:11.035Z,1010.70
2018-04-24T02:18:11.052Z,1010.69
2018-04-24T02:19:11.018Z,1010.74
2018-04-24T02:20:11.032Z,1010.72
2018-04-24T02:21:11.062Z,1010.77
2018-04-24T02:22:11.094Z,1010.78
2018-04-24T02:23:11.113Z,1010.78
2018-04-24T02:24:11.093Z,1010.78
2018-04-24T02:25:11.118Z,1010.81
2018-04-24T02:26:11.106Z,1010.82
2018-04-24T02:27:11.111Z,1010.79
2018-04-24T02:28:11.171Z,1010.77
2018-04-24T02:29:11.137Z,1010.77
2018-04-24T02:30:11.158Z,1010.80
2018-04-24T02:31:11.197Z,1010.79
2018-04-24T02:32:11.189Z,1010.77
2018-04-24T02:33:11.198Z,1010.80
2018-04-24T02:34:11.265Z,1010.76
2018-04-24T02:35:11.223Z,1010.79
2018-04-24T02:36:11.241Z,1010.74
2018-04-24T02:37:11.238Z,1010.76
2018-04-24T02:38:11.247Z,1010.79
2018-04-24T02:39:11.263Z,1010.86
2018-04-24T02:40:11.301Z,1010.86
2018-04-24T02:41:11.277Z,1010.91
2018-04-24T02:42:11.286Z,1010.91
2018-04-24T02:43:11.308Z,1010.89
2018-04-24T02:44:11.306Z,1010.88
2018-04-24T02:45:11.363Z,1010.85
2018-04-24T02:46:11.347Z,1010.87
2018-04-24T02:47:11.356Z,1010.87
2018-04-24T02:48:11.357Z,1010.85
2018-04-24T02:49:11.444Z,1010.85
2018-04-24T02:50:11.392Z,1010.84
2018-04-24T02:51:11.449Z,1010.79
2018-04-24T02:52:11.441Z,1010.78
2018-04-24T02:53:11.421Z,1010.80
2018-04-24T02:54:11.422Z,1010.84
2018-04-24T02:55:11.488Z,1010.87
2018-04-24T02:56:11.471Z,1010.91
2018-04-24T02:57:11.475Z,1010.86
2018-04-24T02:58:11.487Z,1010.86
2018-04-24T02:59:11.489Z,1010.78
2018-04-24T03:00:11.526Z,1010.79
2018-04-24T03:01:11.519Z,1010.78
2018-04-24T03:02:11.569Z,1010.80
2018-04-24T03:03:11.536Z,1010.81
2018-04-24T03:04:11.585Z,1010.80
2018-04-24T03:05:11.583Z,1010.76
2018-04-24T03:06:11.661Z,1010.75
2018-04-24T03:07:11.593Z,1010.64
2018-04-24T03:08:11.595Z,1010.64
2018-04-24T03:09:11.619Z,1010.75
2018-04-24T03:10:11.620Z,1010.79
2018-04-24T03:11:11.671Z,1010.73
2018-04-24T03:12:11.673Z,1010.66
2018-04-24T03:13:11.703Z,1010.66
2018-04-24T03:14:11.661Z,1010.66
2018-04-24T03:15:11.674Z,1010.63
2018-04-24T03:16:11.674Z,1010.62
2018-04-24T03:17:11.739Z,1010.63
2018-04-24T03:18:11.747Z,1010.60
2018-04-24T03:19:11.711Z,1010.56
2018-04-24T03:20:11.744Z,1010.55
2018-04-24T03:21:11.745Z,1010.51
2018-04-24T03:22:11.765Z,1010.48
2018-04-24T03:23:11.824Z,1010.45
2018-04-24T03:24:11.807Z,1010.43
2018-04-24T03:25:11.790Z,1010.41
2018-04-24T03:26:11.797Z,1010.41
2018-04-24T03:27:11.808Z,1010.45
2018-04-24T03:28:11.888Z,1010.44
2018-04-24T03:29:11.844Z,1010.40
2018-04-24T03:30:11.851Z,1010.37
2018-04-24T03:31:11.872Z,1010.36
2018-04-24T03:32:11.893Z,1010.39
2018-04-24T03:33:11.877Z,1010.39
2018-04-24T03:34:11.967Z,1010.35
2018-04-24T03:35:11.922Z,1010.38
2018-04-24T03:36:11.910Z,1010.29
2018-04-24T03:37:11.914Z,1010.30
2018-04-24T03:38:11.928Z,1010.31
2018-04-24T03:39:12.000Z,1010.29
2018-04-24T03:40:11.977Z,1010.31
2018-04-24T03:41:11.991Z,1010.34
2018-04-24T03:42:12.041Z,1010.31
2018-04-24T03:43:12.000Z,1010.30
2018-04-24T03:44:11.998Z,1010.31
2018-04-24T03:45:12.017Z,1010.37
2018-04-24T03:46:12.075Z,1010.35
2018-04-24T03:47:12.036Z,1010.39
2018-04-24T03:48:12.040Z,1010.42
2018-04-24T03:49:12.059Z,1010.43
2018-04-24T03:50:12.060Z,1010.41
2018-04-24T03:51:12.116Z,1010.44
2018-04-24T03:52:12.109Z,1010.46
2018-04-24T03:53:12.125Z,1010.48
2018-04-24T03:54:12.116Z,1010.46
2018-04-24T03:55:12.129Z,1010.45
2018-04-24T03:56:12.191Z,1010.46
2018-04-24T03:57:12.222Z,1010.47
2018-04-24T03:58:12.168Z,1010.45
2018-04-24T03:59:12.168Z,1010.50
2018-04-24T04:00:12.185Z,1010.53
2018-04-24T04:01:12.250Z,1010.56
2018-04-24T04:02:12.228Z,1010.53
2018-04-24T04:03:12.242Z,1010.59
2018-04-24T04:04:12.250Z,1010.54
2018-04-24T04:05:12.248Z,1010.53
2018-04-24T04:06:12.265Z,1010.52
2018-04-24T04:07:12.271Z,1010.51
2018-04-24T04:08:12.325Z,1010.50
2018-04-24T04:09:12.287Z,1010.49
2018-04-24T04:10:12.292Z,1010.46
2018-04-24T04:11:12.310Z,1010.48
2018-04-24T04:12:12.321Z,1010.43
2018-04-24T04:13:12.376Z,1010.44
2018-04-24T04:14:12.354Z,1010.41
2018-04-24T04:15:12.387Z,1010.38
2018-04-24T04:16:12.389Z,1010.38
2018-04-24T04:17:12.451Z,1010.32
2018-04-24T04:18:12.384Z,1010.37
2018-04-24T04:19:12.407Z,1010.39
2018-04-24T04:20:12.413Z,1010.40
2018-04-24T04:21:12.424Z,1010.41
2018-04-24T04:22:12.430Z,1010.43
2018-04-24T04:23:12.512Z,1010.41
2018-04-24T04:24:12.466Z,1010.40
2018-04-24T04:25:12.468Z,1010.37
2018-04-24T04:26:12.490Z,1010.40
2018-04-24T04:27:12.492Z,1010.38
2018-04-24T04:28:12.562Z,1010.38
2018-04-24T04:29:12.564Z,1010.41
2018-04-24T04:30:12.576Z,1010.38
2018-04-24T04:31:12.544Z,1010.39
2018-04-24T04:32:12.552Z,1010.41
2018-04-24T04:33:12.567Z,1010.41
2018-04-24T04:34:12.641Z,1010.40
2018-04-24T04:35:12.594Z,1010.41
2018-04-24T04:36:12.612Z,1010.43
2018-04-24T04:37:12.634Z,1010.40
2018-04-24T04:38:12.626Z,1010.40
2018-04-24T04:39:12.682Z,1010.37
2018-04-24T04:40:12.659Z,1010.38
2018-04-24T04:41:12.669Z,1010.37
2018-04-24T04:42:12.681Z,1010.30
2018-04-24T04:43:12.683Z,1010.28
2018-04-24T04:44:12.740Z,1010.27
2018-04-24T04:45:12.766Z,1010.25
2018-04-24T04:46:12.718Z,1010.26
2018-04-24T04:47:12.732Z,1010.26
2018-04-24T04:48:12.748Z,1010.26
2018-04-24T04:49:12.796Z,1010.22
2018-04-24T04:50:12.781Z,1010.18
2018-04-24T04:51:12.813Z,1010.19
2018-04-24T04:52:12.797Z,1010.23
2018-04-24T04:53:12.818Z,1010.25
2018-04-24T04:54:12.811Z,1010.29
2018-04-24T04:55:12.833Z,1010.27
2018-04-24T04:56:12.967Z,1010.29
2018-04-24T04:57:12.860Z,1010.26
2018-04-24T04:58:12.866Z,1010.22
2018-04-24T04:59:12.887Z,1010.23
2018-04-24T05:00:12.909Z,1010.17
2018-04-24T05:01:12.897Z,1010.16
2018-04-24T05:02:12.971Z,1010.14
2018-04-24T05:03:12.941Z,1010.14
2018-04-24T05:04:12.939Z,1010.12
2018-04-24T05:05:12.997Z,1010.13
2018-04-24T05:06:12.966Z,1010.16
2018-04-24T05:07:13.007Z,1010.20
2018-04-24T05:08:13.013Z,1010.27
2018-04-24T05:09:13.034Z,1010.25
2018-04-24T05:10:13.009Z,1010.24
2018-04-24T05:11:13.017Z,1010.23
2018-04-24T05:12:13.022Z,1010.20
2018-04-24T05:13:13.075Z,1010.19
2018-04-24T05:14:13.074Z,1010.24
2018-04-24T05:15:13.062Z,1010.24
2018-04-24T05:16:13.078Z,1010.19
2018-04-24T05:17:13.092Z,1010.19
2018-04-24T05:18:13.144Z,1010.18
2018-04-24T05:19:13.164Z,1010.23
2018-04-24T05:20:13.136Z,1010.23
2018-04-24T05:21:13.134Z,1010.23
2018-04-24T05:22:13.133Z,1010.17
2018-04-24T05:23:13.145Z,1010.17
2018-04-24T05:24:13.204Z,1010.19
2018-04-24T05:25:13.212Z,1010.22
2018-04-24T05:26:13.200Z,1010.16
2018-04-24T05:27:13.255Z,1010.16
2018-04-24T05:28:13.211Z,1010.18
2018-04-24T05:29:13.259Z,1010.18
2018-04-24T05:30:13.233Z,1010.14
2018-04-24T05:31:13.258Z,1010.12
2018-04-24T05:32:13.311Z,1010.10
2018-04-24T05:33:13.262Z,1010.15
2018-04-24T05:34:13.284Z,1010.17
2018-04-24T05:35:13.293Z,1010.18
2018-04-24T05:36:13.325Z,1010.21
2018-04-24T05:37:13.344Z,1010.25
2018-04-24T05:38:13.335Z,1010.29
2018-04-24T05:39:13.334Z,1010.33
2018-04-24T05:40:13.375Z,1010.32
2018-04-24T05:41:13.371Z,1010.28
2018-04-24T05:42:13.433Z,1010.25
2018-04-24T05:43:13.389Z,1010.20
2018-04-24T05:44:13.391Z,1010.17
2018-04-24T05:45:13.479Z,1010.16
2018-04-24T05:46:13.426Z,1010.13
2018-04-24T05:47:13.464Z,1010.14
2018-04-24T05:48:13.440Z,1010.18
2018-04-24T05:49:13.461Z,1010.19
2018-04-24T05:50:13.499Z,1010.18
2018-04-24T05:51:13.501Z,1010.19
2018-04-24T05:52:13.494Z,1010.21
2018-04-24T05:53:13.548Z,1010.22
2018-04-24T05:54:13.553Z,1010.20
2018-04-24T05:55:13.516Z,1010.21
2018-04-24T05:56:13.569Z,1010.24
2018-04-24T05:57:13.598Z,1010.19
2018-04-24T05:58:13.586Z,1010.18
2018-04-24T05:59:13.590Z,1010.15
2018-04-24T06:00:13.591Z,1010.17
2018-04-24T06:01:13.605Z,1010.16
2018-04-24T06:02:13.724Z,1010.16
2018-04-24T06:03:13.620Z,1010.14
2018-04-24T06:04:13.636Z,1010.06
2018-04-24T06:05:13.647Z,1010.01
2018-04-24T06:06:13.651Z,1009.97
2018-04-24T06:07:13.701Z,1009.98
2018-04-24T06:08:13.743Z,1009.94
2018-04-24T06:09:13.719Z,1009.90
2018-04-24T06:10:13.701Z,1009.90
2018-04-24T06:11:13.833Z,1009.86
2018-04-24T06:12:14.002Z,1009.87
2018-04-24T06:13:13.859Z,1009.92
2018-04-24T06:14:13.751Z,1009.94
2018-04-24T06:15:13.826Z,1009.97
2018-04-24T06:16:13.800Z,1009.99
2018-04-24T06:17:13.796Z,1009.97
2018-04-24T06:18:13.838Z,1009.97
2018-04-24T06:19:13.819Z,1010.01
2018-04-24T06:20:13.849Z,1010.03
2018-04-24T06:21:13.851Z,1010.05
2018-04-24T06:22:13.846Z,1010.05
2018-04-24T06:23:14.153Z,1010.08
2018-04-24T06:24:13.889Z,1010.11
2018-04-24T06:25:13.878Z,1010.12
2018-04-24T06:26:13.915Z,1010.12
2018-04-24T06:27:13.898Z,1010.13
2018-04-24T06:28:13.931Z,1010.14
2018-04-24T06:29:13.967Z,1010.12
2018-04-24T06:30:13.944Z,1010.15
2018-04-24T06:31:13.977Z,1010.11
2018-04-24T06:32:14.006Z,1010.14
2018-04-24T06:33:14.028Z,1010.16
2018-04-24T06:34:14.043Z,1010.12
2018-04-24T06:35:14.022Z,1010.14
2018-04-24T06:36:14.026Z,1010.10
2018-04-24T06:37:14.032Z,1010.09
2018-04-24T06:38:14.068Z,1010.10
2018-04-24T06:39:14.077Z,1010.04
2018-04-24T06:40:14.069Z,1010.03
2018-04-24T06:41:14.079Z,1009.99
2018-04-24T06:42:14.158Z,1009.99
2018-04-24T06:43:14.110Z,1010.04
2018-04-24T06:44:14.176Z,1010.03
2018-04-24T06:45:14.129Z,1010.07
2018-04-24T06:46:14.177Z,1010.10
2018-04-24T06:47:14.161Z,1010.11
2018-04-24T06:48:14.190Z,1010.04
2018-04-24T06:49:14.171Z,1010.09
2018-04-24T06:50:14.256Z,1010.08
2018-04-24T06:51:14.211Z,1010.10
2018-04-24T06:52:14.228Z,1010.17
2018-04-24T06:53:14.258Z,1010.18
2018-04-24T06:54:14.232Z,1010.12
2018-04-24T06:55:14.290Z,1010.13
2018-04-24T06:56:14.255Z,1010.13
2018-04-24T06:57:14.300Z,1010.11
2018-04-24T06:58:14.289Z,1010.06
2018-04-24T06:59:14.321Z,1010.02
2018-04-24T07:00:14.355Z,1010.05
2018-04-24T07:01:14.387Z,1010.05
2018-04-24T07:02:14.331Z,1009.97
2018-04-24T07:03:14.349Z,1009.99
2018-04-24T07:04:14.367Z,1009.94
2018-04-24T07:05:14.385Z,1009.94
2018-04-24T07:06:14.445Z,1009.96
2018-04-24T07:07:14.419Z,1009.97
2018-04-24T07:08:14.426Z,1009.98
2018-04-24T07:09:14.415Z,1010.02
2018-04-24T07:10:14.446Z,1010.01
2018-04-24T07:11:14.498Z,1010.02
2018-04-24T07:12:14.464Z,1010.00
2018-04-24T07:13:14.494Z,1009.93
2018-04-24T07:14:14.508Z,1009.93
2018-04-24T07:15:14.542Z,1009.82
2018-04-24T07:16:14.579Z,1009.84
2018-04-24T07:17:14.543Z,1009.87
2018-04-24T07:18:14.575Z,1009.93
2018-04-24T07:19:14.577Z,1009.92
2018-04-24T07:20:14.567Z,1009.91
2018-04-24T07:21:14.567Z,1009.83
2018-04-24T07:22:14.663Z,1009.83
2018-04-24T07:23:14.653Z,1009.81
2018-04-24T07:24:14.623Z,1009.79
2018-04-24T07:25:14.635Z,1009.80
2018-04-24T07:26:14.655Z,1009.82
2018-04-24T07:27:14.735Z,1009.78
2018-04-24T07:28:14.732Z,1009.71
2018-04-24T07:29:14.720Z,1009.72
2018-04-24T07:30:14.710Z,1009.67
2018-04-24T07:31:14.741Z,1009.71
2018-04-24T07:32:14.721Z,1009.71
2018-04-24T07:33:14.742Z,1009.63
2018-04-24T07:34:14.819Z,1009.64
2018-04-24T07:35:14.751Z,1009.65
2018-04-24T07:36:14.782Z,1009.68
2018-04-24T07:37:14.785Z,1009.66
2018-04-24T07:38:14.928Z,1009.61
2018-04-24T07:39:14.835Z,1009.55
2018-04-24T07:40:14.875Z,1009.57
2018-04-24T07:41:14.852Z,1009.54
2018-04-24T07:42:14.854Z,1009.55
2018-04-24T07:43:14.855Z,1009.49
2018-04-24T07:44:14.879Z,1009.52
2018-04-24T07:45:14.922Z,1009.53
2018-04-24T07:46:14.923Z,1009.56
2018-04-24T07:47:14.923Z,1009.57
2018-04-24T07:48:14.960Z,1009.58
2018-04-24T07:49:14.952Z,1009.57
2018-04-24T07:50:14.987Z,1009.60
2018-04-24T07:51:15.005Z,1009.54
2018-04-24T07:52:14.999Z,1009.48
2018-04-24T07:53:15.024Z,1009.46
2018-04-24T07:54:15.080Z,1009.41
2018-04-24T07:55:15.022Z,1009.39
2018-04-24T07:56:15.081Z,1009.37
2018-04-24T07:57:15.164Z,1009.38
2018-04-24T07:58:15.062Z,1009.36
2018-04-24T07:59:15.068Z,1009.37
2018-04-24T08:00:15.089Z,1009.35
2018-04-24T08:01:15.145Z,1009.33
2018-04-24T08:02:15.149Z,1009.31
2018-04-24T08:03:15.134Z,1009.27
2018-04-24T08:04:15.131Z,1009.23
2018-04-24T08:05:15.164Z,1009.23
2018-04-24T08:06:15.175Z,1009.30
2018-04-24T08:07:15.213Z,1009.29
2018-04-24T08:08:15.200Z,1009.35
2018-04-24T08:09:15.191Z,1009.34
2018-04-24T08:10:15.223Z,1009.35
2018-04-24T08:11:15.215Z,1009.27
2018-04-24T08:12:15.279Z,1009.30
2018-04-24T08:13:15.390Z,1009.29
2018-04-24T08:14:15.476Z,1009.27
2018-04-24T08:15:15.285Z,1009.30
2018-04-24T08:16:15.284Z,1009.26
2018-04-24T08:17:15.354Z,1009.28
2018-04-24T08:18:15.345Z,1009.25
2018-04-24T08:19:15.317Z,1009.25
2018-04-24T08:20:15.364Z,1009.23
2018-04-24T08:21:15.366Z,1009.22
2018-04-24T08:22:15.433Z,1009.28
2018-04-24T08:23:15.444Z,1009.26
2018-04-24T08:24:15.443Z,1009.25
2018-04-24T08:25:15.426Z,1009.27
2018-04-24T08:26:15.414Z,1009.25
2018-04-24T08:27:15.441Z,1009.20
2018-04-24T08:28:15.538Z,1009.24
2018-04-24T08:29:15.471Z,1009.25
2018-04-24T08:30:15.481Z,1009.22
2018-04-24T08:31:15.488Z,1009.21
2018-04-24T08:32:15.499Z,1009.22
2018-04-24T08:33:15.566Z,1009.18
2018-04-24T08:34:15.555Z,1009.17
2018-04-24T08:35:15.540Z,1009.14
2018-04-24T08:36:15.554Z,1009.14
2018-04-24T08:37:15.564Z,1009.23
2018-04-24T08:38:15.643Z,1009.22
2018-04-24T08:39:15.601Z,1009.20
2018-04-24T08:40:15.621Z,1009.16
2018-04-24T08:41:15.735Z,1009.26
2018-04-24T08:42:15.633Z,1009.19
2018-04-24T08:43:15.669Z,1009.21
2018-04-24T08:44:15.697Z,1009.23
2018-04-24T08:45:15.719Z,1009.28
2018-04-24T08:46:15.786Z,1009.18
2018-04-24T08:47:15.707Z,1009.19
2018-04-24T08:48:15.753Z,1009.18
2018-04-24T08:49:15.774Z,1009.17
2018-04-24T08:50:15.790Z,1009.09
2018-04-24T08:51:15.785Z,1009.19
2018-04-24T08:52:15.776Z,1009.17
2018-04-24T08:53:15.787Z,1009.06
2018-04-24T08:54:15.806Z,1009.09
2018-04-24T08:55:15.864Z,1009.02
2018-04-24T08:56:15.826Z,1009.06
2018-04-24T08:57:15.827Z,1009.06
2018-04-24T08:58:15.900Z,1009.13
2018-04-24T08:59:15.938Z,1009.23
2018-04-24T09:00:15.878Z,1009.24
2018-04-24T09:01:15.900Z,1009.27
2018-04-24T09:02:15.921Z,1009.29
2018-04-24T09:03:16.012Z,1009.28
2018-04-24T09:04:15.924Z,1009.28
2018-04-24T09:05:15.959Z,1009.27
2018-04-24T09:06:15.986Z,1009.27
2018-04-24T09:07:16.093Z,1009.31
2018-04-24T09:08:16.084Z,1009.28
2018-04-24T09:09:16.068Z,1009.34
2018-04-24T09:10:16.016Z,1009.25
2018-04-24T09:11:16.025Z,1009.33
2018-04-24T09:12:16.050Z,1009.28
2018-04-24T09:13:16.128Z,1009.26
2018-04-24T09:14:16.065Z,1009.17
2018-04-24T09:15:16.093Z,1009.19
2018-04-24T09:16:16.137Z,1009.23
2018-04-24T09:17:16.126Z,1009.23
2018-04-24T09:18:16.163Z,1009.16
2018-04-24T09:19:16.142Z,1009.20
2018-04-24T09:20:16.170Z,1009.23
2018-04-24T09:21:16.240Z,1009.16
2018-04-24T09:22:16.175Z,1009.14
2018-04-24T09:23:16.256Z,1009.11
2018-04-24T09:24:16.215Z,1009.06
2018-04-24T09:25:16.242Z,1009.05
2018-04-24T09:26:16.229Z,1009.07
2018-04-24T09:27:16.276Z,1009.09
2018-04-24T09:28:16.297Z,1009.08
2018-04-24T09:29:16.296Z,1009.09
2018-04-24T09:30:16.306Z,1009.12
2018-04-24T09:31:16.308Z,1009.14
2018-04-24T09:32:16.324Z,1009.18
2018-04-24T09:33:16.462Z,1009.13
2018-04-24T09:34:16.398Z,1009.09
2018-04-24T09:35:16.372Z,1009.18
2018-04-24T09:36:16.378Z,1009.16
2018-04-24T09:37:16.388Z,1009.13
2018-04-24T09:38:16.403Z,1009.07
2018-04-24T09:39:16.467Z,1009.13
2018-04-24T09:40:16.428Z,1009.04
2018-04-24T09:41:16.439Z,1009.07
2018-04-24T09:42:16.444Z,1009.03
2018-04-24T09:43:16.489Z,1009.05
2018-04-24T09:44:16.545Z,1009.09
2018-04-24T09:45:16.491Z,1009.11
2018-04-24T09:46:16.543Z,1009.09
2018-04-24T09:47:16.550Z,1009.10
2018-04-24T09:48:16.536Z,1009.18
2018-04-24T09:49:16.621Z,1009.18
2018-04-24T09:50:16.577Z,1009.24
2018-04-24T09:51:16.637Z,1009.34
2018-04-24T09:52:16.606Z,1009.28
2018-04-24T09:53:16.608Z,1009.29
2018-04-24T09:54:16.669Z,1009.28
2018-04-24T09:55:16.627Z,1009.18
2018-04-24T09:56:16.669Z,1009.19
2018-04-24T09:57:16.700Z,1009.23
2018-04-24T09:58:16.682Z,1009.19
2018-04-24T09:59:16.704Z,1009.17
2018-04-24T10:00:16.694Z,1009.22
2018-04-24T10:01:16.714Z,1009.22
2018-04-24T10:02:16.885Z,1009.19
2018-04-24T10:03:16.746Z,1009.23
2018-04-24T10:04:16.852Z,1009.27
2018-04-24T10:05:16.927Z,1009.30
2018-04-24T10:06:16.781Z,1009.28
2018-04-24T10:07:16.794Z,1009.33
2018-04-24T10:08:16.820Z,1009.20
2018-04-24T10:09:16.867Z,1009.28
2018-04-24T10:10:16.882Z,1009.27
2018-04-24T10:11:16.911Z,1009.30
2018-04-24T10:12:16.855Z,1009.35
2018-04-24T10:13:16.886Z,1009.37
2018-04-24T10:14:16.898Z,1009.34
2018-04-24T10:15:16.949Z,1009.32
2018-04-24T10:16:16.911Z,1009.38
2018-04-24T10:17:16.940Z,1009.36
2018-04-24T10:18:16.949Z,1009.36
2018-04-24T10:19:16.983Z,1009.36
2018-04-24T10:20:17.015Z,1009.40
2018-04-24T10:21:17.009Z,1009.39
2018-04-24T10:22:16.999Z,1009.53
2018-04-24T10:23:17.014Z,1009.53
2018-04-24T10:24:17.071Z,1009.56
2018-04-24T10:25:17.035Z,1009.53
2018-04-24T10:26:17.067Z,1009.48
2018-04-24T10:27:17.122Z,1009.51
2018-04-24T10:28:17.107Z,1009.50
2018-04-24T10:29:17.136Z,1009.43
2018-04-24T10:30:17.120Z,1009.51
2018-04-24T10:31:17.152Z,1009.52
2018-04-24T10:32:17.147Z,1009.41
2018-04-24T10:33:17.189Z,1009.42
2018-04-24T10:34:17.171Z,1009.48
2018-04-24T10:35:17.221Z,1009.47
2018-04-24T10:36:17.235Z,1009.49
2018-04-24T10:37:17.234Z,1009.53
2018-04-24T10:38:17.210Z,1009.51
2018-04-24T10:39:17.241Z,1009.50
2018-04-24T10:40:17.239Z,1009.46
2018-04-24T10:41:17.291Z,1009.38
2018-04-24T10:42:17.279Z,1009.45
2018-04-24T10:43:17.297Z,1009.45
2018-04-24T10:44:17.296Z,1009.48
2018-04-24T10:45:17.305Z,1009.48
2018-04-24T10:46:17.401Z,1009.40
2018-04-24T10:47:17.371Z,1009.45
2018-04-24T10:48:17.350Z,1009.42
2018-04-24T10:49:17.391Z,1009.42
2018-04-24T10:50:17.399Z,1009.43
2018-04-24T10:51:17.509Z,1009.40
2018-04-24T10:52:17.458Z,1009.41
2018-04-24T10:53:17.464Z,1009.39
2018-04-24T10:54:17.453Z,1009.35
2018-04-24T10:55:17.522Z,1009.40
2018-04-24T10:56:17.473Z,1009.39
2018-04-24T10:57:17.479Z,1009.44
2018-04-24T10:58:17.559Z,1009.40
2018-04-24T10:59:17.620Z,1009.45
2018-04-24T11:00:17.573Z,1009.45
2018-04-24T11:01:17.541Z,1009.44
2018-04-24T11:02:17.572Z,1009.43
2018-04-24T11:03:17.576Z,1009.37
2018-04-24T11:04:17.615Z,1009.39
2018-04-24T11:05:17.607Z,1009.42
2018-04-24T11:06:17.609Z,1009.48
2018-04-24T11:07:17.621Z,1009.53
2018-04-24T11:08:17.636Z,1009.49
2018-04-24T11:09:17.701Z,1009.57
2018-04-24T13:58:43.696Z,1009.69
2018-04-24T13:59:43.681Z,1009.60
2018-04-24T14:00:43.674Z,1009.61
2018-04-24T14:01:43.685Z,1009.56
2018-04-24T14:02:43.698Z,1009.60
2018-04-24T14:03:43.753Z,1009.44
2018-04-24T14:04:43.739Z,1009.45
2018-04-24T14:05:43.782Z,1009.45
2018-04-24T14:10:08.635Z,1009.26
2018-04-24T14:11:01.573Z,1009.28
2018-04-24T14:13:45.391Z,1009.29
2018-04-24T14:14:45.394Z,1009.28
2018-04-24T14:15:45.459Z,1009.30
2018-04-24T14:16:45.429Z,1009.37
2018-04-24T14:17:45.436Z,1009.35
2018-04-24T14:18:45.456Z,1009.32
2018-04-24T14:19:45.446Z,1009.32
2018-04-24T14:20:45.514Z,1009.35
2018-04-24T14:21:45.488Z,1009.42
2018-04-24T14:22:45.493Z,1009.42
2018-04-24T14:23:45.522Z,1009.39
2018-04-24T14:24:45.527Z,1009.40
2018-04-24T14:25:45.577Z,1009.39
2018-04-24T14:26:45.550Z,1009.37
2018-04-24T14:27:45.563Z,1009.35
2018-04-24T14:28:45.572Z,1009.41
2018-04-24T14:29:45.591Z,1009.45
2018-04-24T14:30:45.629Z,1009.43
2018-04-24T14:31:45.596Z,1009.43
2018-04-24T14:32:45.604Z,1009.43
2018-04-24T14:33:45.640Z,1009.45
2018-04-24T14:34:45.639Z,1009.42
2018-04-24T14:35:45.685Z,1009.41
2018-04-24T14:36:45.687Z,1009.43
2018-04-24T14:37:45.674Z,1009.44
2018-04-24T14:38:45.686Z,1009.44
2018-04-24T14:39:45.716Z,1009.48
2018-04-24T14:40:45.777Z,1009.48
2018-04-24T14:41:45.744Z,1009.43
2018-04-24T14:42:45.776Z,1009.43
2018-04-24T14:43:45.756Z,1009.39
2018-04-24T14:44:45.800Z,1009.42
2018-04-24T14:45:45.839Z,1009.45
2018-04-24T14:46:45.854Z,1009.48
2018-04-24T14:47:45.826Z,1009.43
2018-04-24T14:48:45.863Z,1009.44
2018-04-24T14:49:45.842Z,1009.47
2018-04-24T14:50:45.858Z,1009.45
2018-04-24T14:51:45.969Z,1009.47
2018-04-24T14:52:45.943Z,1009.49
2018-04-24T14:53:45.894Z,1009.51
2018-04-24T14:54:45.895Z,1009.47
2018-04-24T14:55:45.931Z,1009.41
2018-04-24T14:56:45.921Z,1009.47
2018-04-24T14:57:45.965Z,1009.45
2018-04-24T14:58:45.947Z,1009.40